sensor_id;sensor_type;location;lat;lon;timestamp;temperature;humidity
18291;DHT22;9271;48.590;8.866;2024-02-14T00:01:19;4.50;99.90
18291;DHT22;9271;48.590;8.866;2024-02-14T00:03:46;4.40;99.90
18291;DHT22;9271;48.590;8.866;2024-02-14T00:06:13;4.40;99.90
18291;DHT22;9271;48.590;8.866;2024-02-14T00:08:39;4.40;99.90
18291;DHT22;9271;48.590;8.866;2024-02-14T00:11:06;4.50;99.90
18291;DHT22;9271;48.590;8.866;2024-02-14T00:13:33;4.50;99.90
18291;DHT22;9271;48.590;8.866;2024-02-14T00:16:00;4.70;99.90
18291;DHT22;9271;48.590;8.866;2024-02-14T00:18:27;4.80;99.90
18291;DHT22;9271;48.590;8.866;2024-02-14T00:20:56;4.80;99.90
18291;DHT22;9271;48.590;8.866;2024-02-14T00:23:22;4.90;99.90
18291;DHT22;9271;48.590;8.866;2024-02-14T00:25:49;4.90;99.90
18291;DHT22;9271;48.590;8.866;2024-02-14T00:28:16;4.90;99.90
18291;DHT22;9271;48.590;8.866;2024-02-14T00:30:43;4.80;99.90
18291;DHT22;9271;48.590;8.866;2024-02-14T00:33:09;4.70;99.90
18291;DHT22;9271;48.590;8.866;2024-02-14T00:35:36;4.90;99.90
18291;DHT22;9271;48.590;8.866;2024-02-14T00:38:04;5.20;99.90
18291;DHT22;9271;48.590;8.866;2024-02-14T00:40:31;5.20;99.90
18291;DHT22;9271;48.590;8.866;2024-02-14T00:42:57;5.30;99.90
18291;DHT22;9271;48.590;8.866;2024-02-14T00:45:24;5.40;99.90
18291;DHT22;9271;48.590;8.866;2024-02-14T00:47:51;5.30;99.90
18291;DHT22;9271;48.590;8.866;2024-02-14T00:50:17;5.50;99.90
18291;DHT22;9271;48.590;8.866;2024-02-14T00:52:44;5.70;99.90
18291;DHT22;9271;48.590;8.866;2024-02-14T00:55:12;5.80;99.90
18291;DHT22;9271;48.590;8.866;2024-02-14T00:57:39;5.40;99.90
18291;DHT22;9271;48.590;8.866;2024-02-14T01:00:06;5.20;99.90
18291;DHT22;9271;48.590;8.866;2024-02-14T01:02:34;5.20;99.90
18291;DHT22;9271;48.590;8.866;2024-02-14T01:05:01;5.30;99.90
18291;DHT22;9271;48.590;8.866;2024-02-14T01:07:29;5.60;99.90
18291;DHT22;9271;48.590;8.866;2024-02-14T01:09:57;5.70;99.90
18291;DHT22;9271;48.590;8.866;2024-02-14T01:12:25;5.60;99.90
18291;DHT22;9271;48.590;8.866;2024-02-14T01:14:51;5.50;99.90
18291;DHT22;9271;48.590;8.866;2024-02-14T01:17:18;5.40;99.90
18291;DHT22;9271;48.590;8.866;2024-02-14T01:19:45;5.00;99.90
18291;DHT22;9271;48.590;8.866;2024-02-14T01:22:12;5.20;99.90
18291;DHT22;9271;48.590;8.866;2024-02-14T01:24:41;5.30;99.90
18291;DHT22;9271;48.590;8.866;2024-02-14T01:27:08;5.60;99.90
18291;DHT22;9271;48.590;8.866;2024-02-14T01:29:36;5.70;99.90
18291;DHT22;9271;48.590;8.866;2024-02-14T01:32:04;5.80;99.90
18291;DHT22;9271;48.590;8.866;2024-02-14T01:34:32;5.90;99.90
18291;DHT22;9271;48.590;8.866;2024-02-14T01:36:58;5.90;99.90
18291;DHT22;9271;48.590;8.866;2024-02-14T01:39:25;5.90;99.90
18291;DHT22;9271;48.590;8.866;2024-02-14T01:41:52;6.00;99.90
18291;DHT22;9271;48.590;8.866;2024-02-14T01:44:18;6.10;99.90
18291;DHT22;9271;48.590;8.866;2024-02-14T01:46:47;6.10;99.90
18291;DHT22;9271;48.590;8.866;2024-02-14T01:49:15;6.20;99.90
18291;DHT22;9271;48.590;8.866;2024-02-14T01:51:43;6.10;99.90
18291;DHT22;9271;48.590;8.866;2024-02-14T01:54:11;6.10;99.90
18291;DHT22;9271;48.590;8.866;2024-02-14T01:56:39;6.10;99.90
18291;DHT22;9271;48.590;8.866;2024-02-14T01:59:07;6.20;99.90
18291;DHT22;9271;48.590;8.866;2024-02-14T02:01:34;6.50;99.90
18291;DHT22;9271;48.590;8.866;2024-02-14T02:04:03;6.60;99.90
18291;DHT22;9271;48.590;8.866;2024-02-14T02:06:30;6.50;99.90
18291;DHT22;9271;48.590;8.866;2024-02-14T02:08:57;6.50;99.90
18291;DHT22;9271;48.590;8.866;2024-02-14T02:11:24;6.40;99.90
18291;DHT22;9271;48.590;8.866;2024-02-14T02:13:51;6.40;99.90
18291;DHT22;9271;48.590;8.866;2024-02-14T02:16:18;6.10;99.90
18291;DHT22;9271;48.590;8.866;2024-02-14T02:18:46;6.10;99.90
18291;DHT22;9271;48.590;8.866;2024-02-14T02:21:15;5.90;99.90
18291;DHT22;9271;48.590;8.866;2024-02-14T02:23:46;5.70;99.90
18291;DHT22;9271;48.590;8.866;2024-02-14T02:26:13;5.70;99.90
18291;DHT22;9271;48.590;8.866;2024-02-14T02:28:39;5.70;99.90
18291;DHT22;9271;48.590;8.866;2024-02-14T02:31:08;5.60;99.90
18291;DHT22;9271;48.590;8.866;2024-02-14T02:33:35;5.70;99.90
18291;DHT22;9271;48.590;8.866;2024-02-14T02:36:03;5.60;99.90
18291;DHT22;9271;48.590;8.866;2024-02-14T02:38:29;5.70;99.90
18291;DHT22;9271;48.590;8.866;2024-02-14T02:40:57;5.70;99.90
18291;DHT22;9271;48.590;8.866;2024-02-14T02:43:26;5.60;99.90
18291;DHT22;9271;48.590;8.866;2024-02-14T02:45:52;5.50;99.90
18291;DHT22;9271;48.590;8.866;2024-02-14T02:48:19;5.40;99.90
18291;DHT22;9271;48.590;8.866;2024-02-14T02:50:48;5.30;99.90
18291;DHT22;9271;48.590;8.866;2024-02-14T02:53:16;5.30;99.90
18291;DHT22;9271;48.590;8.866;2024-02-14T02:55:43;5.40;99.90
18291;DHT22;9271;48.590;8.866;2024-02-14T02:58:11;5.30;99.90
18291;DHT22;9271;48.590;8.866;2024-02-14T03:00:39;5.30;99.90
18291;DHT22;9271;48.590;8.866;2024-02-14T03:03:07;5.10;99.90
18291;DHT22;9271;48.590;8.866;2024-02-14T03:05:34;4.80;99.90
18291;DHT22;9271;48.590;8.866;2024-02-14T03:08:00;4.90;99.90
18291;DHT22;9271;48.590;8.866;2024-02-14T03:10:27;5.20;99.90
18291;DHT22;9271;48.590;8.866;2024-02-14T03:12:55;5.30;99.90
18291;DHT22;9271;48.590;8.866;2024-02-14T03:15:23;5.00;99.90
18291;DHT22;9271;48.590;8.866;2024-02-14T03:17:51;4.90;99.90
18291;DHT22;9271;48.590;8.866;2024-02-14T03:20:18;4.80;99.90
18291;DHT22;9271;48.590;8.866;2024-02-14T03:22:45;4.80;99.90
18291;DHT22;9271;48.590;8.866;2024-02-14T03:25:13;5.00;99.90
18291;DHT22;9271;48.590;8.866;2024-02-14T03:27:40;5.00;99.90
18291;DHT22;9271;48.590;8.866;2024-02-14T03:30:08;4.90;99.90
18291;DHT22;9271;48.590;8.866;2024-02-14T03:32:36;4.90;99.90
18291;DHT22;9271;48.590;8.866;2024-02-14T03:35:03;4.80;99.90
18291;DHT22;9271;48.590;8.866;2024-02-14T03:37:31;4.70;99.90
18291;DHT22;9271;48.590;8.866;2024-02-14T03:39:59;4.70;99.90
18291;DHT22;9271;48.590;8.866;2024-02-14T03:42:25;4.90;99.90
18291;DHT22;9271;48.590;8.866;2024-02-14T03:44:52;5.00;99.90
18291;DHT22;9271;48.590;8.866;2024-02-14T03:47:25;5.20;99.90
18291;DHT22;9271;48.590;8.866;2024-02-14T03:49:53;5.50;99.90
18291;DHT22;9271;48.590;8.866;2024-02-14T03:52:20;5.70;99.90
18291;DHT22;9271;48.590;8.866;2024-02-14T03:54:48;5.90;99.90
18291;DHT22;9271;48.590;8.866;2024-02-14T03:57:14;6.00;99.90
18291;DHT22;9271;48.590;8.866;2024-02-14T03:59:41;6.20;99.90
18291;DHT22;9271;48.590;8.866;2024-02-14T04:02:07;6.10;99.90
18291;DHT22;9271;48.590;8.866;2024-02-14T04:04:35;6.10;99.90
18291;DHT22;9271;48.590;8.866;2024-02-14T04:07:04;6.20;99.90
18291;DHT22;9271;48.590;8.866;2024-02-14T04:09:32;6.00;99.90
18291;DHT22;9271;48.590;8.866;2024-02-14T04:11:59;6.00;99.90
18291;DHT22;9271;48.590;8.866;2024-02-14T04:14:26;6.00;99.90
18291;DHT22;9271;48.590;8.866;2024-02-14T04:16:52;5.70;99.90
18291;DHT22;9271;48.590;8.866;2024-02-14T04:19:19;5.70;99.90
18291;DHT22;9271;48.590;8.866;2024-02-14T04:21:45;5.70;99.90
18291;DHT22;9271;48.590;8.866;2024-02-14T04:24:13;5.60;99.90
18291;DHT22;9271;48.590;8.866;2024-02-14T04:26:40;5.50;99.90
18291;DHT22;9271;48.590;8.866;2024-02-14T04:29:08;5.40;99.90
18291;DHT22;9271;48.590;8.866;2024-02-14T04:31:34;5.30;99.90
18291;DHT22;9271;48.590;8.866;2024-02-14T04:34:01;5.50;99.90
18291;DHT22;9271;48.590;8.866;2024-02-14T04:36:28;5.50;99.90
18291;DHT22;9271;48.590;8.866;2024-02-14T04:38:57;5.40;99.90
18291;DHT22;9271;48.590;8.866;2024-02-14T04:41:25;5.40;99.90
18291;DHT22;9271;48.590;8.866;2024-02-14T04:43:52;5.40;99.90
18291;DHT22;9271;48.590;8.866;2024-02-14T04:46:18;5.50;99.90
18291;DHT22;9271;48.590;8.866;2024-02-14T04:48:47;5.50;99.90
18291;DHT22;9271;48.590;8.866;2024-02-14T04:51:14;5.30;99.90
18291;DHT22;9271;48.590;8.866;2024-02-14T04:53:41;5.10;99.90
18291;DHT22;9271;48.590;8.866;2024-02-14T04:56:07;5.10;99.90
18291;DHT22;9271;48.590;8.866;2024-02-14T04:58:35;5.10;99.90
18291;DHT22;9271;48.590;8.866;2024-02-14T05:01:02;5.10;99.90
18291;DHT22;9271;48.590;8.866;2024-02-14T05:03:29;5.20;99.90
18291;DHT22;9271;48.590;8.866;2024-02-14T05:05:56;5.40;99.90
18291;DHT22;9271;48.590;8.866;2024-02-14T05:08:23;5.40;99.90
18291;DHT22;9271;48.590;8.866;2024-02-14T05:10:50;4.90;99.90
18291;DHT22;9271;48.590;8.866;2024-02-14T05:13:16;4.60;99.90
18291;DHT22;9271;48.590;8.866;2024-02-14T05:15:44;4.60;99.90
18291;DHT22;9271;48.590;8.866;2024-02-14T05:18:11;4.80;99.90
18291;DHT22;9271;48.590;8.866;2024-02-14T05:20:37;4.90;99.90
18291;DHT22;9271;48.590;8.866;2024-02-14T05:23:04;5.10;99.90
18291;DHT22;9271;48.590;8.866;2024-02-14T05:25:31;5.20;99.90
18291;DHT22;9271;48.590;8.866;2024-02-14T05:27:58;5.40;99.90
18291;DHT22;9271;48.590;8.866;2024-02-14T05:30:26;5.60;99.90
18291;DHT22;9271;48.590;8.866;2024-02-14T05:32:54;5.80;99.90
18291;DHT22;9271;48.590;8.866;2024-02-14T05:35:22;6.00;99.90
18291;DHT22;9271;48.590;8.866;2024-02-14T05:37:48;5.90;99.90
18291;DHT22;9271;48.590;8.866;2024-02-14T05:40:15;5.80;99.90
18291;DHT22;9271;48.590;8.866;2024-02-14T05:42:42;5.60;99.90
18291;DHT22;9271;48.590;8.866;2024-02-14T05:45:09;5.60;99.90
18291;DHT22;9271;48.590;8.866;2024-02-14T05:47:36;5.70;99.90
18291;DHT22;9271;48.590;8.866;2024-02-14T05:50:05;5.90;99.90
18291;DHT22;9271;48.590;8.866;2024-02-14T05:52:34;5.90;99.90
18291;DHT22;9271;48.590;8.866;2024-02-14T05:55:01;6.00;99.90
18291;DHT22;9271;48.590;8.866;2024-02-14T05:57:28;6.20;99.90
18291;DHT22;9271;48.590;8.866;2024-02-14T05:59:55;6.20;99.90
18291;DHT22;9271;48.590;8.866;2024-02-14T06:02:22;6.30;99.90
18291;DHT22;9271;48.590;8.866;2024-02-14T06:04:48;6.20;99.90
18291;DHT22;9271;48.590;8.866;2024-02-14T06:07:16;6.30;99.90
18291;DHT22;9271;48.590;8.866;2024-02-14T06:09:43;6.40;99.90
18291;DHT22;9271;48.590;8.866;2024-02-14T06:12:11;6.40;99.90
18291;DHT22;9271;48.590;8.866;2024-02-14T06:14:38;6.50;99.90
18291;DHT22;9271;48.590;8.866;2024-02-14T06:17:04;6.50;99.90
18291;DHT22;9271;48.590;8.866;2024-02-14T06:19:31;6.40;99.90
18291;DHT22;9271;48.590;8.866;2024-02-14T06:21:58;6.40;99.90
18291;DHT22;9271;48.590;8.866;2024-02-14T06:24:26;6.40;99.90
18291;DHT22;9271;48.590;8.866;2024-02-14T06:26:53;6.40;99.90
18291;DHT22;9271;48.590;8.866;2024-02-14T06:29:20;6.40;99.90
18291;DHT22;9271;48.590;8.866;2024-02-14T06:31:47;6.50;99.90
18291;DHT22;9271;48.590;8.866;2024-02-14T06:34:13;6.50;99.90
18291;DHT22;9271;48.590;8.866;2024-02-14T06:36:40;6.50;99.90
18291;DHT22;9271;48.590;8.866;2024-02-14T06:39:07;6.40;99.90
18291;DHT22;9271;48.590;8.866;2024-02-14T06:41:35;6.50;99.90
18291;DHT22;9271;48.590;8.866;2024-02-14T06:44:01;6.50;99.90
18291;DHT22;9271;48.590;8.866;2024-02-14T06:46:28;6.80;99.90
18291;DHT22;9271;48.590;8.866;2024-02-14T06:48:55;6.90;99.90
18291;DHT22;9271;48.590;8.866;2024-02-14T06:51:22;6.90;99.90
18291;DHT22;9271;48.590;8.866;2024-02-14T06:53:49;7.00;99.90
18291;DHT22;9271;48.590;8.866;2024-02-14T06:56:16;7.00;99.90
18291;DHT22;9271;48.590;8.866;2024-02-14T06:58:44;6.90;99.90
18291;DHT22;9271;48.590;8.866;2024-02-14T07:01:11;7.00;99.90
18291;DHT22;9271;48.590;8.866;2024-02-14T07:03:40;7.00;99.90
18291;DHT22;9271;48.590;8.866;2024-02-14T07:06:07;7.00;99.90
18291;DHT22;9271;48.590;8.866;2024-02-14T07:08:34;7.20;99.90
18291;DHT22;9271;48.590;8.866;2024-02-14T07:11:00;7.30;99.90
18291;DHT22;9271;48.590;8.866;2024-02-14T07:13:27;7.60;99.90
18291;DHT22;9271;48.590;8.866;2024-02-14T07:15:55;7.50;99.90
18291;DHT22;9271;48.590;8.866;2024-02-14T07:18:21;7.90;99.90
18291;DHT22;9271;48.590;8.866;2024-02-14T07:20:48;7.90;99.90
18291;DHT22;9271;48.590;8.866;2024-02-14T07:23:16;7.40;99.90
18291;DHT22;9271;48.590;8.866;2024-02-14T07:25:43;7.30;99.90
18291;DHT22;9271;48.590;8.866;2024-02-14T07:28:10;7.60;99.90
18291;DHT22;9271;48.590;8.866;2024-02-14T07:30:37;7.70;99.90
18291;DHT22;9271;48.590;8.866;2024-02-14T07:33:05;8.10;99.90
18291;DHT22;9271;48.590;8.866;2024-02-14T07:35:31;8.20;99.90
18291;DHT22;9271;48.590;8.866;2024-02-14T07:37:58;8.30;99.90
18291;DHT22;9271;48.590;8.866;2024-02-14T07:40:25;8.50;99.90
18291;DHT22;9271;48.590;8.866;2024-02-14T07:42:52;8.80;99.90
18291;DHT22;9271;48.590;8.866;2024-02-14T07:45:19;9.20;99.90
18291;DHT22;9271;48.590;8.866;2024-02-14T07:47:46;9.50;99.90
18291;DHT22;9271;48.590;8.866;2024-02-14T07:50:15;9.60;99.90
18291;DHT22;9271;48.590;8.866;2024-02-14T07:52:42;9.60;99.90
18291;DHT22;9271;48.590;8.866;2024-02-14T07:55:09;9.60;99.90
18291;DHT22;9271;48.590;8.866;2024-02-14T07:57:38;9.70;99.90
18291;DHT22;9271;48.590;8.866;2024-02-14T08:00:05;9.70;99.90
18291;DHT22;9271;48.590;8.866;2024-02-14T08:02:33;10.00;99.90
18291;DHT22;9271;48.590;8.866;2024-02-14T08:05:00;10.10;99.90
18291;DHT22;9271;48.590;8.866;2024-02-14T08:07:28;10.00;99.90
18291;DHT22;9271;48.590;8.866;2024-02-14T08:09:56;10.10;99.90
18291;DHT22;9271;48.590;8.866;2024-02-14T08:12:23;10.20;99.90
18291;DHT22;9271;48.590;8.866;2024-02-14T08:14:51;10.40;99.90
18291;DHT22;9271;48.590;8.866;2024-02-14T08:17:18;10.60;99.90
18291;DHT22;9271;48.590;8.866;2024-02-14T08:19:44;10.80;99.90
18291;DHT22;9271;48.590;8.866;2024-02-14T08:22:11;11.10;99.90
18291;DHT22;9271;48.590;8.866;2024-02-14T08:24:39;11.50;99.50
18291;DHT22;9271;48.590;8.866;2024-02-14T08:27:06;11.90;99.20
18291;DHT22;9271;48.590;8.866;2024-02-14T08:29:32;12.40;98.50
18291;DHT22;9271;48.590;8.866;2024-02-14T08:31:59;12.60;97.60
18291;DHT22;9271;48.590;8.866;2024-02-14T08:34:26;12.70;97.40
18291;DHT22;9271;48.590;8.866;2024-02-14T08:36:53;12.70;97.60
18291;DHT22;9271;48.590;8.866;2024-02-14T08:39:19;12.60;97.80
18291;DHT22;9271;48.590;8.866;2024-02-14T08:41:47;12.40;98.30
18291;DHT22;9271;48.590;8.866;2024-02-14T08:44:15;12.50;98.60
18291;DHT22;9271;48.590;8.866;2024-02-14T08:46:43;12.40;98.00
18291;DHT22;9271;48.590;8.866;2024-02-14T08:49:14;12.10;97.50
18291;DHT22;9271;48.590;8.866;2024-02-14T08:51:40;11.50;98.60
18291;DHT22;9271;48.590;8.866;2024-02-14T08:54:09;11.50;99.00
18291;DHT22;9271;48.590;8.866;2024-02-14T08:56:37;11.10;99.30
18291;DHT22;9271;48.590;8.866;2024-02-14T08:59:05;11.00;99.70
18291;DHT22;9271;48.590;8.866;2024-02-14T09:01:32;10.90;99.90
18291;DHT22;9271;48.590;8.866;2024-02-14T09:03:59;10.80;99.90
18291;DHT22;9271;48.590;8.866;2024-02-14T09:06:26;10.80;99.90
18291;DHT22;9271;48.590;8.866;2024-02-14T09:08:53;11.00;99.90
18291;DHT22;9271;48.590;8.866;2024-02-14T09:11:20;11.10;99.90
18291;DHT22;9271;48.590;8.866;2024-02-14T09:13:48;11.10;99.90
18291;DHT22;9271;48.590;8.866;2024-02-14T09:16:20;10.90;99.90
18291;DHT22;9271;48.590;8.866;2024-02-14T09:18:47;10.90;99.90
18291;DHT22;9271;48.590;8.866;2024-02-14T09:21:14;11.10;99.90
18291;DHT22;9271;48.590;8.866;2024-02-14T09:23:42;11.20;99.90
18291;DHT22;9271;48.590;8.866;2024-02-14T09:26:10;11.20;99.90
18291;DHT22;9271;48.590;8.866;2024-02-14T09:28:40;11.60;99.90
18291;DHT22;9271;48.590;8.866;2024-02-14T09:31:06;12.10;99.90
18291;DHT22;9271;48.590;8.866;2024-02-14T09:33:36;12.50;99.40
18291;DHT22;9271;48.590;8.866;2024-02-14T09:36:03;12.70;99.20
18291;DHT22;9271;48.590;8.866;2024-02-14T09:38:30;12.80;99.20
18291;DHT22;9271;48.590;8.866;2024-02-14T09:41:03;12.70;99.20
18291;DHT22;9271;48.590;8.866;2024-02-14T09:43:36;12.80;99.10
18291;DHT22;9271;48.590;8.866;2024-02-14T09:46:04;12.90;98.90
18291;DHT22;9271;48.590;8.866;2024-02-14T09:48:32;12.90;99.10
18291;DHT22;9271;48.590;8.866;2024-02-14T09:51:00;12.80;99.00
18291;DHT22;9271;48.590;8.866;2024-02-14T09:53:28;12.70;99.50
18291;DHT22;9271;48.590;8.866;2024-02-14T09:55:56;13.00;99.50
18291;DHT22;9271;48.590;8.866;2024-02-14T09:58:24;13.40;99.20
18291;DHT22;9271;48.590;8.866;2024-02-14T10:00:51;14.00;98.50
18291;DHT22;9271;48.590;8.866;2024-02-14T10:03:17;14.20;97.90
18291;DHT22;9271;48.590;8.866;2024-02-14T10:05:44;15.20;97.40
18291;DHT22;9271;48.590;8.866;2024-02-14T10:08:12;15.90;96.30
18291;DHT22;9271;48.590;8.866;2024-02-14T10:10:39;15.90;96.70
18291;DHT22;9271;48.590;8.866;2024-02-14T10:13:06;16.00;96.80
18291;DHT22;9271;48.590;8.866;2024-02-14T10:15:33;16.10;96.90
18291;DHT22;9271;48.590;8.866;2024-02-14T10:17:59;17.30;95.40
18291;DHT22;9271;48.590;8.866;2024-02-14T10:20:26;17.50;94.20
18291;DHT22;9271;48.590;8.866;2024-02-14T10:23:00;18.70;93.20
18291;DHT22;9271;48.590;8.866;2024-02-14T10:25:29;19.40;91.70
18291;DHT22;9271;48.590;8.866;2024-02-14T10:27:57;20.20;89.10
18291;DHT22;9271;48.590;8.866;2024-02-14T10:30:23;19.00;90.30
18291;DHT22;9271;48.590;8.866;2024-02-14T10:32:50;17.10;91.70
18291;DHT22;9271;48.590;8.866;2024-02-14T10:35:18;16.90;93.40
18291;DHT22;9271;48.590;8.866;2024-02-14T10:37:47;18.20;91.80
18291;DHT22;9271;48.590;8.866;2024-02-14T10:40:15;19.10;90.40
18291;DHT22;9271;48.590;8.866;2024-02-14T10:42:43;18.80;90.00
18291;DHT22;9271;48.590;8.866;2024-02-14T10:45:10;18.40;90.70
18291;DHT22;9271;48.590;8.866;2024-02-14T10:47:40;18.00;90.80
18291;DHT22;9271;48.590;8.866;2024-02-14T10:50:09;16.90;92.80
18291;DHT22;9271;48.590;8.866;2024-02-14T10:52:40;17.20;93.00
18291;DHT22;9271;48.590;8.866;2024-02-14T10:55:07;17.20;92.20
18291;DHT22;9271;48.590;8.866;2024-02-14T10:57:34;16.30;93.70
18291;DHT22;9271;48.590;8.866;2024-02-14T11:00:06;15.80;94.60
18291;DHT22;9271;48.590;8.866;2024-02-14T11:02:34;16.10;94.60
18291;DHT22;9271;48.590;8.866;2024-02-14T11:05:02;17.10;93.90
18291;DHT22;9271;48.590;8.866;2024-02-14T11:07:29;18.50;92.00
18291;DHT22;9271;48.590;8.866;2024-02-14T11:10:01;19.70;90.10
18291;DHT22;9271;48.590;8.866;2024-02-14T11:12:32;20.60;86.00
18291;DHT22;9271;48.590;8.866;2024-02-14T11:15:00;20.10;87.90
18291;DHT22;9271;48.590;8.866;2024-02-14T11:17:31;19.30;89.40
18291;DHT22;9271;48.590;8.866;2024-02-14T11:19:57;19.50;89.50
18291;DHT22;9271;48.590;8.866;2024-02-14T11:22:24;21.20;86.00
18291;DHT22;9271;48.590;8.866;2024-02-14T11:24:51;22.80;80.70
18291;DHT22;9271;48.590;8.866;2024-02-14T11:27:19;23.00;80.90
18291;DHT22;9271;48.590;8.866;2024-02-14T11:29:51;22.20;79.70
18291;DHT22;9271;48.590;8.866;2024-02-14T11:32:18;20.60;84.00
18291;DHT22;9271;48.590;8.866;2024-02-14T11:34:53;20.80;82.50
18291;DHT22;9271;48.590;8.866;2024-02-14T11:37:27;21.10;82.10
18291;DHT22;9271;48.590;8.866;2024-02-14T11:39:53;21.80;81.50
18291;DHT22;9271;48.590;8.866;2024-02-14T11:42:23;22.30;79.70
18291;DHT22;9271;48.590;8.866;2024-02-14T11:44:50;22.50;77.80
18291;DHT22;9271;48.590;8.866;2024-02-14T11:47:16;23.20;76.40
18291;DHT22;9271;48.590;8.866;2024-02-14T11:49:43;24.70;75.20
18291;DHT22;9271;48.590;8.866;2024-02-14T11:52:12;26.40;67.90
18291;DHT22;9271;48.590;8.866;2024-02-14T11:54:46;25.70;64.30
18291;DHT22;9271;48.590;8.866;2024-02-14T11:57:16;26.50;64.50
18291;DHT22;9271;48.590;8.866;2024-02-14T11:59:44;23.70;68.40
18291;DHT22;9271;48.590;8.866;2024-02-14T12:02:12;22.80;70.10
18291;DHT22;9271;48.590;8.866;2024-02-14T12:04:39;22.40;70.90
18291;DHT22;9271;48.590;8.866;2024-02-14T12:07:05;22.30;72.10
18291;DHT22;9271;48.590;8.866;2024-02-14T12:09:34;22.30;69.80
18291;DHT22;9271;48.590;8.866;2024-02-14T12:12:01;20.80;74.20
18291;DHT22;9271;48.590;8.866;2024-02-14T12:14:28;20.80;76.30
18291;DHT22;9271;48.590;8.866;2024-02-14T12:16:56;20.40;77.70
18291;DHT22;9271;48.590;8.866;2024-02-14T12:19:25;20.20;78.00
18291;DHT22;9271;48.590;8.866;2024-02-14T12:21:52;20.50;76.90
18291;DHT22;9271;48.590;8.866;2024-02-14T12:24:20;19.60;78.20
18291;DHT22;9271;48.590;8.866;2024-02-14T12:26:50;18.20;82.90
18291;DHT22;9271;48.590;8.866;2024-02-14T12:29:18;17.40;87.50
18291;DHT22;9271;48.590;8.866;2024-02-14T12:31:44;18.40;85.90
18291;DHT22;9271;48.590;8.866;2024-02-14T12:34:12;19.30;83.80
18291;DHT22;9271;48.590;8.866;2024-02-14T12:36:39;19.00;83.70
18291;DHT22;9271;48.590;8.866;2024-02-14T12:39:06;19.10;84.20
18291;DHT22;9271;48.590;8.866;2024-02-14T12:41:34;19.90;81.30
18291;DHT22;9271;48.590;8.866;2024-02-14T12:44:06;20.20;81.50
18291;DHT22;9271;48.590;8.866;2024-02-14T12:46:33;20.40;81.30
18291;DHT22;9271;48.590;8.866;2024-02-14T12:49:03;20.00;80.40
18291;DHT22;9271;48.590;8.866;2024-02-14T12:51:30;19.00;83.70
18291;DHT22;9271;48.590;8.866;2024-02-14T12:53:56;19.20;84.30
18291;DHT22;9271;48.590;8.866;2024-02-14T12:56:23;19.60;82.80
18291;DHT22;9271;48.590;8.866;2024-02-14T12:58:50;18.90;85.50
18291;DHT22;9271;48.590;8.866;2024-02-14T13:01:18;18.90;86.10
18291;DHT22;9271;48.590;8.866;2024-02-14T13:03:45;18.90;85.00
18291;DHT22;9271;48.590;8.866;2024-02-14T13:06:12;18.50;87.20
18291;DHT22;9271;48.590;8.866;2024-02-14T13:08:39;18.10;88.20
18291;DHT22;9271;48.590;8.866;2024-02-14T13:11:06;17.60;90.00
18291;DHT22;9271;48.590;8.866;2024-02-14T13:13:34;17.60;90.30
18291;DHT22;9271;48.590;8.866;2024-02-14T13:16:01;17.10;90.90
18291;DHT22;9271;48.590;8.866;2024-02-14T13:18:29;16.40;91.90
18291;DHT22;9271;48.590;8.866;2024-02-14T13:20:56;16.20;93.10
18291;DHT22;9271;48.590;8.866;2024-02-14T13:23:24;16.30;92.50
18291;DHT22;9271;48.590;8.866;2024-02-14T13:25:51;15.60;94.00
18291;DHT22;9271;48.590;8.866;2024-02-14T13:28:18;15.70;94.60
18291;DHT22;9271;48.590;8.866;2024-02-14T13:30:45;16.20;93.80
18291;DHT22;9271;48.590;8.866;2024-02-14T13:33:13;16.60;93.60
18291;DHT22;9271;48.590;8.866;2024-02-14T13:35:41;16.10;94.10
18291;DHT22;9271;48.590;8.866;2024-02-14T13:38:08;16.00;94.60
18291;DHT22;9271;48.590;8.866;2024-02-14T13:40:35;15.10;95.90
18291;DHT22;9271;48.590;8.866;2024-02-14T13:43:02;14.80;96.80
18291;DHT22;9271;48.590;8.866;2024-02-14T13:45:40;14.80;97.30
18291;DHT22;9271;48.590;8.866;2024-02-14T13:48:07;14.80;97.30
18291;DHT22;9271;48.590;8.866;2024-02-14T13:50:34;14.90;97.70
18291;DHT22;9271;48.590;8.866;2024-02-14T13:53:03;15.30;97.30
18291;DHT22;9271;48.590;8.866;2024-02-14T13:55:29;15.80;96.50
18291;DHT22;9271;48.590;8.866;2024-02-14T13:57:56;15.70;96.90
18291;DHT22;9271;48.590;8.866;2024-02-14T14:00:23;15.90;96.60
18291;DHT22;9271;48.590;8.866;2024-02-14T14:02:50;16.30;96.00
18291;DHT22;9271;48.590;8.866;2024-02-14T14:05:17;16.70;95.70
18291;DHT22;9271;48.590;8.866;2024-02-14T14:07:44;17.60;94.60
18291;DHT22;9271;48.590;8.866;2024-02-14T14:10:13;17.40;94.10
18291;DHT22;9271;48.590;8.866;2024-02-14T14:12:39;18.20;93.30
18291;DHT22;9271;48.590;8.866;2024-02-14T14:15:07;18.90;92.90
18291;DHT22;9271;48.590;8.866;2024-02-14T14:17:34;18.90;91.40
18291;DHT22;9271;48.590;8.866;2024-02-14T14:20:02;19.00;91.40
18291;DHT22;9271;48.590;8.866;2024-02-14T14:22:29;18.40;91.60
18291;DHT22;9271;48.590;8.866;2024-02-14T14:24:55;18.00;92.40
18291;DHT22;9271;48.590;8.866;2024-02-14T14:27:23;18.60;91.50
18291;DHT22;9271;48.590;8.866;2024-02-14T14:29:50;17.70;92.90
18291;DHT22;9271;48.590;8.866;2024-02-14T14:32:17;17.90;92.60
18291;DHT22;9271;48.590;8.866;2024-02-14T14:34:43;17.80;92.70
18291;DHT22;9271;48.590;8.866;2024-02-14T14:37:10;18.30;92.50
18291;DHT22;9271;48.590;8.866;2024-02-14T14:39:37;17.80;92.50
18291;DHT22;9271;48.590;8.866;2024-02-14T14:42:04;17.10;93.90
18291;DHT22;9271;48.590;8.866;2024-02-14T14:44:32;17.30;94.00
18291;DHT22;9271;48.590;8.866;2024-02-14T14:47:00;17.10;93.90
18291;DHT22;9271;48.590;8.866;2024-02-14T14:49:26;17.20;94.10
18291;DHT22;9271;48.590;8.866;2024-02-14T14:51:53;17.40;93.50
18291;DHT22;9271;48.590;8.866;2024-02-14T14:54:20;17.40;93.70
18291;DHT22;9271;48.590;8.866;2024-02-14T14:56:47;16.70;94.70
18291;DHT22;9271;48.590;8.866;2024-02-14T14:59:13;17.20;94.10
18291;DHT22;9271;48.590;8.866;2024-02-14T15:01:41;17.10;94.60
18291;DHT22;9271;48.590;8.866;2024-02-14T15:04:08;16.90;94.60
18291;DHT22;9271;48.590;8.866;2024-02-14T15:06:35;16.80;94.80
18291;DHT22;9271;48.590;8.866;2024-02-14T15:09:02;16.60;95.00
18291;DHT22;9271;48.590;8.866;2024-02-14T15:11:28;15.80;96.30
18291;DHT22;9271;48.590;8.866;2024-02-14T15:13:55;15.60;97.20
18291;DHT22;9271;48.590;8.866;2024-02-14T15:16:22;15.40;97.10
18291;DHT22;9271;48.590;8.866;2024-02-14T15:18:50;15.30;97.70
18291;DHT22;9271;48.590;8.866;2024-02-14T15:21:17;15.50;97.20
18291;DHT22;9271;48.590;8.866;2024-02-14T15:23:44;15.40;97.10
18291;DHT22;9271;48.590;8.866;2024-02-14T15:26:11;15.20;97.20
18291;DHT22;9271;48.590;8.866;2024-02-14T15:28:38;15.10;97.80
18291;DHT22;9271;48.590;8.866;2024-02-14T15:31:07;15.20;97.70
18291;DHT22;9271;48.590;8.866;2024-02-14T15:33:58;15.50;97.20
18291;DHT22;9271;48.590;8.866;2024-02-14T15:36:24;15.70;97.00
18291;DHT22;9271;48.590;8.866;2024-02-14T15:38:51;15.70;97.00
18291;DHT22;9271;48.590;8.866;2024-02-14T15:41:18;15.60;97.10
18291;DHT22;9271;48.590;8.866;2024-02-14T15:43:45;15.20;98.20
18291;DHT22;9271;48.590;8.866;2024-02-14T15:46:12;15.00;98.70
18291;DHT22;9271;48.590;8.866;2024-02-14T15:48:39;15.10;98.60
18291;DHT22;9271;48.590;8.866;2024-02-14T15:51:07;15.20;98.60
18291;DHT22;9271;48.590;8.866;2024-02-14T15:53:34;15.30;98.60
18291;DHT22;9271;48.590;8.866;2024-02-14T15:56:03;15.60;98.10